METAR Data
IDs: Format: Raw Decoded Include TAF

Data at: 2107 UTC 19 May 2019

PAIL 192053Z 12005KT 10SM -RA OVC048 08/05 A2968 RMK AO2 RAB38 SLP053 P0001 60001 T00780050 53004
PAIL 191953Z 14006KT 10SM FEW060 FEW075 BKN100 09/04 A2967 RMK AO2 SLP048 T00890039
PAIL 191853Z 11003KT 10SM SCT095 11/06 A2966 RMK AO2 SLP045 T01110056
PAIL 191753Z 01007KT 10SM CLR 11/04 A2967 RMK AO2 SLP049 60001 T01060044 10106 20050 58014
PAIL 191653Z 02006KT 10SM FEW120 08/04 A2969 RMK AO2 SLP055 T00830039
PAIL 191553Z 34004KT 10SM SCT065 BKN085 OVC100 07/04 A2970 RMK AO2 RAE26 SLP057 P0000 T00720044
PAIL 191453Z 02003KT 10SM -RA OVC046 06/04 A2971 RMK AO2 RAB15 SLP063 P0001 60001 T00560039 57008
PAIL 191353Z 04004KT 10SM FEW050 OVC060 06/02 A2972 RMK AO2 RAB20E47 SLP066 P0000 T00610022
PAIL 191253Z AUTO 35004KT 10SM OVC075 05/02 A2973 RMK AO2 SLP068 T00500022 TSNO
PAIL 191153Z AUTO 34004KT 10SM OVC060 06/02 A2973 RMK AO2 SLP071 T00560022 10083 20044 56013 TSNO
PAIL 191053Z AUTO 00000KT 10SM BKN070 OVC085 04/02 A2975 RMK AO2 SLP075 T00440017 TSNO
PAIL 190953Z AUTO 31004KT 10SM OVC090 05/02 A2976 RMK AO2 SLP079 T00500022 TSNO
PAIL 190853Z AUTO 29006KT 10SM CLR 05/02 A2977 RMK AO2 SLP084 T00500017 401280022 58006 TSNO
PAIL 190753Z AUTO 30004KT 10SM FEW055 06/02 A2978 RMK AO2 SLP087 T00610017 TSNO
PAIL 190653Z AUTO 13004KT 10SM OVC065 08/02 A2979 RMK AO2 SLP088 T00780022 TSNO
PAIL 190553Z AUTO 13007KT 10SM BKN090 08/02 A2979 RMK AO2 SLP090 T00830022 10128 20083 53003 TSNO
PAIL 190453Z 13006KT 10SM SCT100 10/02 A2979 RMK AO2 SLP089 T01000022
PAIL 190353Z 14007KT 10SM OVC080 10/02 A2979 RMK AO2 SLP089 T01000017
PAIL 190253Z 12011KT 10SM BKN080 11/02 A2979 RMK AO2 SLP088 T01110017 55002
PAIL 190153Z 12009KT 10SM SCT080 12/02 A2978 RMK AO2 SLP087 T01220017
PAIL 190053Z 12007KT 10SM BKN075 12/02 A2979 RMK AO2 SLP089 T01220017
PAIL 182353Z 15008KT 10SM BKN070 13/02 A2979 RMK AO2 SLP090 T01280017 10128 20089 58001
PAIL 182253Z 12007KT 10SM FEW070 12/02 A2979 RMK AO2 SLP091 T01170017
PAIL 182153Z VRB05KT 10SM OVC070 12/01 A2979 RMK AO2 SLP091 T01170011
PAIL 182053Z VRB03KT 10SM OVC060 12/02 A2979 RMK AO2 SLP091 T01220017 50000
PAIL 181953Z 11007KT 10SM BKN060 11/02 A2980 RMK AO2 SLP091 T01060017
PAIL 181853Z 09004KT 10SM OVC050 09/02 A2980 RMK AO2 SLP091 T00940017
PAIL 181753Z 10004KT 10SM BKN050 09/02 A2979 RMK AO2 SLP090 T00890017 10094 20022 53004
PAIL 181653Z 01004KT 10SM CLR 09/02 A2979 RMK AO2 SLP088 T00890022
PAIL 181553Z 35004KT 10SM CLR 06/02 A2979 RMK AO2 SLP088 T00610022
PAIL 181453Z 36005KT 10SM CLR 03/01 A2978 RMK AO2 SLP086 T00330011 51006
PAIL 181353Z 36005KT 10SM CLR 03/02 A2978 RMK AO2 SLP085 T00280017
PAIL 181253Z AUTO 33004KT 10SM CLR 03/02 A2977 RMK AO2 SLP082 T00280017 TSNO
PAIL 181153Z AUTO 00000KT 10SM CLR 03/01 A2976 RMK AO2 SLP080 T00280011 10078 20028 53005 TSNO
PAIL 181053Z AUTO 04004KT 10SM CLR 03/01 A2975 RMK AO2 SLP077 T00280011 TSNO
PAIL 180953Z AUTO 08003KT 10SM CLR 04/02 A2975 RMK AO2 SLP077 T00390022 TSNO